Pagina principală
METAR-TAF:

METAR-TAF

Aeroporturi :

Merimbula, Australia

Latitudine: 36-54-31S, longitudine: 149-54-05E, elevație: 2 m

Observații meteo curente

Raportul a fost făcut în urmă cu 57 de minute, la 09:00 UTC
Vânt calm
Temperatură 21°C
Umiditate 83%
Presiune 1013 hPa
Vizibilitate de 10 km sau mai mult

METAR: YMER 290900Z AUTO 00000KT 9999 // NCD 21/18 Q1013

Ora: 20:57 (09:57 UTC)


TAF: lipsă

Observații și prognoze meteo pentru peste 4.000 de aeroporturi (rapoarte METAR și TAF).

Stațiile disponibile sunt reprezentate pe hartă prin puncte galbene și roșii.

Țineți indicatorul mouse-ului pe punctul dorit pentru a vedea denumirea stației.

Apoi, faceți clic pentru a vedea observațiile și prognozele meteorologice.

Pentru a schimba harta: Pentru mărire, faceți clic pe butoanele verzi cu cruce neagră; pentru micșorare, pe butonul verde cu o liniuță; pentru hărți învecinate, pe săgețile verzi.


METAR-TAF: